sensor_id;sensor_type;location;lat;lon;timestamp;pressure;altitude;pressure_sealevel;temperature;humidity
77079;BME280;66004;55.096;38.760;2023-01-01T07:40:23;99440.91;;;2.82;77.83
77079;BME280;66004;55.096;38.760;2023-01-01T07:42:48;99446.09;;;2.88;77.75
77079;BME280;66004;55.096;38.760;2023-01-01T07:45:14;99440.75;;;2.92;77.81
77079;BME280;66004;55.096;38.760;2023-01-01T07:47:39;99434.56;;;2.95;77.97
77079;BME280;66004;55.096;38.760;2023-01-01T07:50:05;99430.91;;;3.00;77.81
77079;BME280;66004;55.096;38.760;2023-01-01T07:52:30;99439.75;;;3.02;78.03
77079;BME280;66004;55.096;38.760;2023-01-01T07:54:56;99431.72;;;3.00;77.67
77079;BME280;66004;55.096;38.760;2023-01-01T07:57:21;99436.03;;;3.06;77.85
77079;BME280;66004;55.096;38.760;2023-01-01T07:59:47;99429.66;;;3.06;77.56
77079;BME280;66004;55.096;38.760;2023-01-01T08:02:12;99420.81;;;3.04;77.89
77079;BME280;66004;55.096;38.760;2023-01-01T08:04:38;99408.25;;;3.06;77.32
77079;BME280;66004;55.096;38.760;2023-01-01T08:07:04;99402.53;;;3.17;77.53
77079;BME280;66004;55.096;38.760;2023-01-01T08:09:30;99394.06;;;3.22;77.65
77079;BME280;66004;55.096;38.760;2023-01-01T08:11:55;99400.13;;;3.24;77.63
77079;BME280;66004;55.096;38.760;2023-01-01T08:14:24;99385.63;;;3.27;77.37
77079;BME280;66004;55.096;38.760;2023-01-01T08:16:52;99375.34;;;3.27;77.42
77079;BME280;66004;55.096;38.760;2023-01-01T08:19:18;99378.22;;;3.36;77.25
77079;BME280;66004;55.096;38.760;2023-01-01T08:21:43;99376.47;;;3.40;77.23
77079;BME280;66004;55.096;38.760;2023-01-01T08:24:09;99375.34;;;3.41;77.08
77079;BME280;66004;55.096;38.760;2023-01-01T08:26:35;99384.63;;;3.50;77.01
77079;BME280;66004;55.096;38.760;2023-01-01T08:29:03;99387.91;;;3.53;76.63
77079;BME280;66004;55.096;38.760;2023-01-01T08:31:29;99380.09;;;3.55;76.77
77079;BME280;66004;55.096;38.760;2023-01-01T08:33:55;99368.31;;;3.58;76.79
77079;BME280;66004;55.096;38.760;2023-01-01T08:43:17;99379.44;;;3.58;76.46
77079;BME280;66004;55.096;38.760;2023-01-01T08:45:44;99378.03;;;3.60;76.62
77079;BME280;66004;55.096;38.760;2023-01-01T08:48:10;99373.28;;;3.61;76.65
77079;BME280;66004;55.096;38.760;2023-01-01T08:50:35;99376.38;;;3.59;76.53
77079;BME280;66004;55.096;38.760;2023-01-01T08:53:01;99328.19;;;3.36;76.72
77079;BME280;66004;55.096;38.760;2023-01-01T08:55:27;99370.00;;;3.59;76.87
77079;BME280;66004;55.096;38.760;2023-01-01T08:57:53;99365.03;;;3.56;76.75
77079;BME280;66004;55.096;38.760;2023-01-01T09:00:19;99354.53;;;3.53;76.66
77079;BME280;66004;55.096;38.760;2023-01-01T09:02:45;99368.72;;;3.65;76.69
77079;BME280;66004;55.096;38.760;2023-01-01T09:05:10;99370.81;;;3.73;76.46
77079;BME280;66004;55.096;38.760;2023-01-01T09:07:36;99369.34;;;3.76;76.22
77079;BME280;66004;55.096;38.760;2023-01-01T09:10:01;99359.03;;;3.76;76.37
77079;BME280;66004;55.096;38.760;2023-01-01T09:12:27;99343.16;;;3.77;76.21
77079;BME280;66004;55.096;38.760;2023-01-01T09:14:53;99352.22;;;3.82;76.43
77079;BME280;66004;55.096;38.760;2023-01-01T09:17:18;99332.03;;;3.77;76.25
77079;BME280;66004;55.096;38.760;2023-01-01T09:19:43;99335.34;;;3.79;76.44
77079;BME280;66004;55.096;38.760;2023-01-01T09:22:10;99337.19;;;3.83;76.14
77079;BME280;66004;55.096;38.760;2023-01-01T09:24:36;99336.56;;;3.86;76.21
77079;BME280;66004;55.096;38.760;2023-01-01T09:27:02;99325.94;;;3.88;76.26
77079;BME280;66004;55.096;38.760;2023-01-01T09:29:27;99316.94;;;3.92;76.40
77079;BME280;66004;55.096;38.760;2023-01-01T09:31:53;99299.69;;;3.81;76.40
77079;BME280;66004;55.096;38.760;2023-01-01T09:34:18;99318.00;;;3.96;76.30
77079;BME280;66004;55.096;38.760;2023-01-01T09:36:45;99331.91;;;3.96;76.29
77079;BME280;66004;55.096;38.760;2023-01-01T09:39:14;99323.16;;;3.88;76.57
77079;BME280;66004;55.096;38.760;2023-01-01T09:47:45;99308.75;;;3.86;76.80
77079;BME280;66004;55.096;38.760;2023-01-01T09:50:14;99309.97;;;3.80;76.53
77079;BME280;66004;55.096;38.760;2023-01-01T09:55:21;99310.63;;;3.77;76.91
77079;BME280;66004;55.096;38.760;2023-01-01T09:57:50;99305.66;;;3.74;76.78
77079;BME280;66004;55.096;38.760;2023-01-01T10:00:16;99307.84;;;3.77;76.80
77079;BME280;66004;55.096;38.760;2023-01-01T10:02:54;99300.09;;;3.74;76.78
77079;BME280;66004;55.096;38.760;2023-01-01T10:10:39;99282.16;;;3.80;77.15
77079;BME280;66004;55.096;38.760;2023-01-01T10:15:33;99273.69;;;3.85;76.71
77079;BME280;66004;55.096;38.760;2023-01-01T10:18:04;99260.94;;;3.84;76.96
77079;BME280;66004;55.096;38.760;2023-01-01T10:20:41;99249.16;;;3.87;76.90
77079;BME280;66004;55.096;38.760;2023-01-01T10:23:18;99249.66;;;3.89;77.08
77079;BME280;66004;55.096;38.760;2023-01-01T10:25:45;99248.53;;;3.90;76.99
77079;BME280;66004;55.096;38.760;2023-01-01T10:30:45;99238.41;;;3.95;76.78
77079;BME280;66004;55.096;38.760;2023-01-01T10:33:14;99231.66;;;3.87;76.80
77079;BME280;66004;55.096;38.760;2023-01-01T10:35:48;99233.97;;;3.94;76.72
77079;BME280;66004;55.096;38.760;2023-01-01T10:38:22;99232.34;;;3.93;76.62
77079;BME280;66004;55.096;38.760;2023-01-01T10:40:50;99224.22;;;3.82;76.76
77079;BME280;66004;55.096;38.760;2023-01-01T10:43:16;99245.09;;;3.94;76.49
77079;BME280;66004;55.096;38.760;2023-01-01T10:45:46;99226.06;;;3.87;76.73
77079;BME280;66004;55.096;38.760;2023-01-01T10:48:23;99229.56;;;3.93;76.84
77079;BME280;66004;55.096;38.760;2023-01-01T10:50:55;99226.78;;;3.93;76.82
77079;BME280;66004;55.096;38.760;2023-01-01T10:53:38;99236.75;;;3.94;77.08
77079;BME280;66004;55.096;38.760;2023-01-01T10:56:13;99202.63;;;3.79;76.84
77079;BME280;66004;55.096;38.760;2023-01-01T10:59:03;99231.84;;;3.90;77.12
77079;BME280;66004;55.096;38.760;2023-01-01T11:01:30;99220.72;;;3.90;77.27
77079;BME280;66004;55.096;38.760;2023-01-01T11:04:19;99220.72;;;3.90;77.39
77079;BME280;66004;55.096;38.760;2023-01-01T11:06:45;99215.13;;;3.90;77.29
77079;BME280;66004;55.096;38.760;2023-01-01T11:09:22;99203.50;;;3.88;77.42
77079;BME280;66004;55.096;38.760;2023-01-01T11:11:57;99204.00;;;3.90;77.54
77079;BME280;66004;55.096;38.760;2023-01-01T11:14:28;99197.78;;;3.94;77.72
77079;BME280;66004;55.096;38.760;2023-01-01T11:16:55;99184.41;;;3.96;77.56
77079;BME280;66004;55.096;38.760;2023-01-01T11:19:33;99185.41;;;4.00;77.56
77079;BME280;66004;55.096;38.760;2023-01-01T11:22:41;99188.69;;;4.02;77.80
77079;BME280;66004;55.096;38.760;2023-01-01T11:25:28;99178.38;;;4.02;77.63
77079;BME280;66004;55.096;38.760;2023-01-01T11:28:19;99176.75;;;4.01;77.92
77079;BME280;66004;55.096;38.760;2023-01-01T11:33:33;99169.34;;;3.97;78.16
77079;BME280;66004;55.096;38.760;2023-01-01T11:36:01;99166.06;;;3.95;77.89
77079;BME280;66004;55.096;38.760;2023-01-01T11:38:27;99157.06;;;3.98;77.98
77079;BME280;66004;55.096;38.760;2023-01-01T11:40:54;99161.88;;;4.06;78.03
77079;BME280;66004;55.096;38.760;2023-01-01T11:43:26;99162.69;;;4.06;78.19
77079;BME280;66004;55.096;38.760;2023-01-01T11:45:56;99153.84;;;4.04;78.12
77079;BME280;66004;55.096;38.760;2023-01-01T11:48:24;99160.75;;;4.07;78.08
77079;BME280;66004;55.096;38.760;2023-01-01T11:50:53;99153.50;;;4.06;77.95
77079;BME280;66004;55.096;38.760;2023-01-01T11:55:49;99145.78;;;4.03;78.18
77079;BME280;66004;55.096;38.760;2023-01-01T11:58:26;99147.44;;;4.04;78.18
77079;BME280;66004;55.096;38.760;2023-01-01T12:00:59;99148.56;;;4.03;78.29
77079;BME280;66004;55.096;38.760;2023-01-01T12:03:39;99128.88;;;3.90;78.23
77079;BME280;66004;55.096;38.760;2023-01-01T12:14:56;99133.78;;;3.94;78.22
77079;BME280;66004;55.096;38.760;2023-01-01T12:20:36;99141.38;;;4.02;78.30
77079;BME280;66004;55.096;38.760;2023-01-01T12:23:03;99135.50;;;4.03;78.36
77079;BME280;66004;55.096;38.760;2023-01-01T12:25:38;99130.75;;;4.04;78.57
77079;BME280;66004;55.096;38.760;2023-01-01T12:30:55;99119.63;;;4.04;78.72
77079;BME280;66004;55.096;38.760;2023-01-01T12:54:18;99069.06;;;3.79;78.94
77079;BME280;66004;55.096;38.760;2023-01-01T12:57:08;99082.38;;;3.91;79.11
77079;BME280;66004;55.096;38.760;2023-01-01T12:59:38;99085.47;;;3.89;79.45
77079;BME280;66004;55.096;38.760;2023-01-01T13:02:15;99073.97;;;3.82;79.31
77079;BME280;66004;55.096;38.760;2023-01-01T13:04:43;99085.47;;;3.89;79.19
77079;BME280;66004;55.096;38.760;2023-01-01T13:07:11;99079.91;;;3.89;79.13
77079;BME280;66004;55.096;38.760;2023-01-01T13:09:41;99081.06;;;3.88;79.48
77079;BME280;66004;55.096;38.760;2023-01-01T13:12:18;99071.72;;;3.84;79.19
77079;BME280;66004;55.096;38.760;2023-01-01T13:14:47;99077.44;;;3.88;79.58
77079;BME280;66004;55.096;38.760;2023-01-01T13:19:45;99067.16;;;3.88;79.53
77079;BME280;66004;55.096;38.760;2023-01-01T13:25:18;99055.53;;;3.86;79.81
77079;BME280;66004;55.096;38.760;2023-01-01T13:38:59;99066.00;;;3.89;79.73
77079;BME280;66004;55.096;38.760;2023-01-01T13:41:43;99061.78;;;3.92;79.82
77079;BME280;66004;55.096;38.760;2023-01-01T13:44:10;99065.06;;;3.94;79.98
77079;BME280;66004;55.096;38.760;2023-01-01T13:55:04;99041.81;;;3.99;80.15
77079;BME280;66004;55.096;38.760;2023-01-01T13:58:17;99038.03;;;3.95;80.25
77079;BME280;66004;55.096;38.760;2023-01-01T14:03:52;99043.59;;;3.95;80.29
77079;BME280;66004;55.096;38.760;2023-01-01T14:06:36;99042.13;;;3.97;80.00
77079;BME280;66004;55.096;38.760;2023-01-01T14:09:12;99045.41;;;3.99;79.93
77079;BME280;66004;55.096;38.760;2023-01-01T14:11:38;99029.69;;;3.95;80.29
77079;BME280;66004;55.096;38.760;2023-01-01T14:16:55;99020.34;;;3.90;80.21
77079;BME280;66004;55.096;38.760;2023-01-01T14:19:23;99020.06;;;4.01;80.54
77079;BME280;66004;55.096;38.760;2023-01-01T14:21:49;99017.13;;;4.06;80.65
77079;BME280;66004;55.096;38.760;2023-01-01T14:24:18;99014.03;;;4.07;80.42
77079;BME280;66004;55.096;38.760;2023-01-01T14:26:44;99017.13;;;4.06;80.47
77079;BME280;66004;55.096;38.760;2023-01-01T14:29:29;99021.41;;;4.12;80.56
77079;BME280;66004;55.096;38.760;2023-01-01T14:32:00;99015.19;;;4.15;80.48
77079;BME280;66004;55.096;38.760;2023-01-01T14:34:35;99003.56;;;4.13;80.63
77079;BME280;66004;55.096;38.760;2023-01-01T14:37:04;99015.69;;;4.17;80.50
77079;BME280;66004;55.096;38.760;2023-01-01T14:39:31;99016.81;;;4.16;80.33
77079;BME280;66004;55.096;38.760;2023-01-01T14:42:03;99016.81;;;4.16;80.39
77079;BME280;66004;55.096;38.760;2023-01-01T14:44:40;99007.97;;;4.14;80.42
77079;BME280;66004;55.096;38.760;2023-01-01T14:47:33;99011.91;;;4.13;80.52
77079;BME280;66004;55.096;38.760;2023-01-01T14:52:35;99014.22;;;4.11;80.58
77079;BME280;66004;55.096;38.760;2023-01-01T14:55:02;98998.50;;;4.15;80.38
77079;BME280;66004;55.096;38.760;2023-01-01T14:57:32;98999.13;;;4.12;80.39
77079;BME280;66004;55.096;38.760;2023-01-01T14:59:58;98990.66;;;4.17;80.27
77079;BME280;66004;55.096;38.760;2023-01-01T15:02:26;98984.44;;;4.20;80.47
77079;BME280;66004;55.096;38.760;2023-01-01T15:04:53;98960.16;;;4.12;80.62
77079;BME280;66004;55.096;38.760;2023-01-01T15:07:27;98978.88;;;4.20;80.28
77079;BME280;66004;55.096;38.760;2023-01-01T15:09:55;98984.94;;;4.22;80.37
77079;BME280;66004;55.096;38.760;2023-01-01T15:12:23;98981.31;;;4.22;80.28
77079;BME280;66004;55.096;38.760;2023-01-01T15:14:50;98996.56;;;4.24;80.13
77079;BME280;66004;55.096;38.760;2023-01-01T15:17:19;98973.94;;;4.17;79.95
77079;BME280;66004;55.096;38.760;2023-01-01T15:19:59;98985.44;;;4.24;80.47
77079;BME280;66004;55.096;38.760;2023-01-01T15:22:34;98980.34;;;4.26;80.39
77079;BME280;66004;55.096;38.760;2023-01-01T15:25:03;98972.00;;;4.26;80.45
77079;BME280;66004;55.096;38.760;2023-01-01T15:27:32;98965.13;;;4.24;80.44
77079;BME280;66004;55.096;38.760;2023-01-01T15:29:59;98971.84;;;4.32;80.32
77079;BME280;66004;55.096;38.760;2023-01-01T15:32:31;98976.25;;;4.33;80.52
77079;BME280;66004;55.096;38.760;2023-01-01T15:34:59;98974.81;;;4.35;80.65
77079;BME280;66004;55.096;38.760;2023-01-01T15:37:35;98973.97;;;4.35;80.36
77079;BME280;66004;55.096;38.760;2023-01-01T15:40:30;98973.31;;;4.38;80.59
77079;BME280;66004;55.096;38.760;2023-01-01T15:45:37;98953.00;;;4.28;80.24
77079;BME280;66004;55.096;38.760;2023-01-01T15:50:35;98950.72;;;4.31;80.23
77079;BME280;66004;55.096;38.760;2023-01-01T15:55:43;98922.06;;;4.30;80.69
77079;BME280;66004;55.096;38.760;2023-01-01T15:59:06;98931.53;;;4.29;80.53
77079;BME280;66004;55.096;38.760;2023-01-01T16:01:10;98915.81;;;4.24;80.63
77079;BME280;66004;55.096;38.760;2023-01-01T16:03:39;98915.81;;;4.24;80.67
77079;BME280;66004;55.096;38.760;2023-01-01T16:06:05;98922.88;;;4.31;80.84
77079;BME280;66004;55.096;38.760;2023-01-01T16:08:31;98930.09;;;4.32;80.90
77079;BME280;66004;55.096;38.760;2023-01-01T16:10:56;98915.00;;;4.33;80.71
77079;BME280;66004;55.096;38.760;2023-01-01T16:13:22;98912.22;;;4.33;80.81
77079;BME280;66004;55.096;38.760;2023-01-01T16:15:59;98891.56;;;4.25;80.78
77079;BME280;66004;55.096;38.760;2023-01-01T16:18:32;98898.28;;;4.33;80.95
77079;BME280;66004;55.096;38.760;2023-01-01T16:20:58;98896.69;;;4.32;80.76
77079;BME280;66004;55.096;38.760;2023-01-01T16:23:24;98901.56;;;4.35;80.85
77079;BME280;66004;55.096;38.760;2023-01-01T16:25:49;98918.78;;;4.37;80.89
77079;BME280;66004;55.096;38.760;2023-01-01T16:28:15;98916.47;;;4.39;80.97
77079;BME280;66004;55.096;38.760;2023-01-01T16:30:41;98901.56;;;4.35;80.83
77079;BME280;66004;55.096;38.760;2023-01-01T16:33:15;98880.63;;;4.28;80.82
77079;BME280;66004;55.096;38.760;2023-01-01T16:35:41;98870.97;;;4.26;81.07
77079;BME280;66004;55.096;38.760;2023-01-01T16:38:07;98907.47;;;4.42;81.02
77079;BME280;66004;55.096;38.760;2023-01-01T16:40:33;98898.81;;;4.43;81.17
77079;BME280;66004;55.096;38.760;2023-01-01T16:42:59;98895.69;;;4.45;81.38
77079;BME280;66004;55.096;38.760;2023-01-01T16:45:25;98892.41;;;4.43;81.33
77079;BME280;66004;55.096;38.760;2023-01-01T16:47:50;98906.66;;;4.50;81.26
77079;BME280;66004;55.096;38.760;2023-01-01T16:50:17;98913.38;;;4.49;81.27
77079;BME280;66004;55.096;38.760;2023-01-01T16:52:43;98888.31;;;4.40;81.24
77079;BME280;66004;55.096;38.760;2023-01-01T16:55:08;98899.13;;;4.51;81.09
77079;BME280;66004;55.096;38.760;2023-01-01T16:57:34;98880.59;;;4.46;81.24
77079;BME280;66004;55.096;38.760;2023-01-01T17:00:00;98889.44;;;4.48;81.26
77079;BME280;66004;55.096;38.760;2023-01-01T17:02:26;98883.88;;;4.48;81.55
77079;BME280;66004;55.096;38.760;2023-01-01T17:04:53;98866.19;;;4.44;81.32
77079;BME280;66004;55.096;38.760;2023-01-01T17:07:18;98868.00;;;4.48;81.59
77079;BME280;66004;55.096;38.760;2023-01-01T17:09:44;98866.69;;;4.55;81.34
77079;BME280;66004;55.096;38.760;2023-01-01T17:12:10;98869.16;;;4.56;81.54
77079;BME280;66004;55.096;38.760;2023-01-01T17:14:35;98865.88;;;4.54;81.54
77079;BME280;66004;55.096;38.760;2023-01-01T17:17:01;98879.63;;;4.59;81.75
77079;BME280;66004;55.096;38.760;2023-01-01T17:19:26;98876.19;;;4.62;81.61
77079;BME280;66004;55.096;38.760;2023-01-01T17:21:52;98875.69;;;4.60;81.55
77079;BME280;66004;55.096;38.760;2023-01-01T17:24:18;98862.25;;;4.62;81.75
77079;BME280;66004;55.096;38.760;2023-01-01T17:26:44;98868.78;;;4.66;81.82
77079;BME280;66004;55.096;38.760;2023-01-01T17:29:10;98869.13;;;4.65;81.73
77079;BME280;66004;55.096;38.760;2023-01-01T17:31:36;98859.78;;;4.70;81.93
77079;BME280;66004;55.096;38.760;2023-01-01T17:34:03;98858.63;;;4.71;82.05
77079;BME280;66004;55.096;38.760;2023-01-01T17:36:29;98853.06;;;4.71;82.11
77079;BME280;66004;55.096;38.760;2023-01-01T17:38:55;98849.28;;;4.75;82.02
77079;BME280;66004;55.096;38.760;2023-01-01T17:41:21;98859.91;;;4.82;82.02
77079;BME280;66004;55.096;38.760;2023-01-01T17:43:48;98850.09;;;4.84;82.19
77079;BME280;66004;55.096;38.760;2023-01-01T17:46:17;98827.81;;;4.76;81.92
77079;BME280;66004;55.096;38.760;2023-01-01T17:48:43;98831.56;;;4.80;82.06
77079;BME280;66004;55.096;38.760;2023-01-01T17:51:10;98846.78;;;4.91;82.11
77079;BME280;66004;55.096;38.760;2023-01-01T17:53:36;98835.78;;;4.95;82.34
77079;BME280;66004;55.096;38.760;2023-01-01T17:56:08;98834.31;;;4.97;82.38
77079;BME280;66004;55.096;38.760;2023-01-01T17:58:36;98828.06;;;5.00;82.23
77079;BME280;66004;55.096;38.760;2023-01-01T18:03:44;98818.56;;;5.01;82.21
77079;BME280;66004;55.096;38.760;2023-01-01T18:06:12;98819.53;;;5.05;82.17
77079;BME280;66004;55.096;38.760;2023-01-01T18:08:38;98817.88;;;5.04;82.19
77079;BME280;66004;55.096;38.760;2023-01-01T18:11:04;98816.25;;;5.03;82.23
77079;BME280;66004;55.096;38.760;2023-01-01T18:13:29;98823.91;;;5.15;82.26
77079;BME280;66004;55.096;38.760;2023-01-01T18:16:03;98809.00;;;5.20;82.18
77079;BME280;66004;55.096;38.760;2023-01-01T18:18:29;98795.22;;;5.15;81.97
77079;BME280;66004;55.096;38.760;2023-01-01T18:21:05;98813.22;;;5.26;82.23
77079;BME280;66004;55.096;38.760;2023-01-01T18:23:35;98810.72;;;5.33;82.47
77079;BME280;66004;55.096;38.760;2023-01-01T18:26:02;98805.16;;;5.33;82.05
77079;BME280;66004;55.096;38.760;2023-01-01T18:28:28;98813.22;;;5.26;82.21
77079;BME280;66004;55.096;38.760;2023-01-01T18:30:54;98810.03;;;5.36;82.13
77079;BME280;66004;55.096;38.760;2023-01-01T18:33:20;98813.13;;;5.43;82.07
77079;BME280;66004;55.096;38.760;2023-01-01T18:35:45;98818.03;;;5.46;82.21
77079;BME280;66004;55.096;38.760;2023-01-01T18:38:11;98825.72;;;5.50;82.09
77079;BME280;66004;55.096;38.760;2023-01-01T18:40:37;98810.63;;;5.51;81.95
77079;BME280;66004;55.096;38.760;2023-01-01T18:43:18;98799.94;;;5.53;81.96
77079;BME280;66004;55.096;38.760;2023-01-01T18:45:45;98797.63;;;5.55;82.35
77079;BME280;66004;55.096;38.760;2023-01-01T18:48:12;98809.91;;;5.62;82.00
77079;BME280;66004;55.096;38.760;2023-01-01T18:50:41;98792.06;;;5.55;81.93
77079;BME280;66004;55.096;38.760;2023-01-01T18:53:17;98809.84;;;5.71;82.01
77079;BME280;66004;55.096;38.760;2023-01-01T18:55:45;98813.59;;;5.75;81.97
77079;BME280;66004;55.096;38.760;2023-01-01T18:58:16;98809.63;;;5.76;82.02
77079;BME280;66004;55.096;38.760;2023-01-01T19:00:42;98803.09;;;5.72;82.08
77079;BME280;66004;55.096;38.760;2023-01-01T19:03:13;98801.63;;;5.75;82.08
77079;BME280;66004;55.096;38.760;2023-01-01T19:05:42;98797.38;;;5.69;82.05
77079;BME280;66004;55.096;38.760;2023-01-01T19:08:15;98811.94;;;5.74;82.27
77079;BME280;66004;55.096;38.760;2023-01-01T19:10:47;98799.97;;;5.74;82.42
77079;BME280;66004;55.096;38.760;2023-01-01T19:15:56;98791.75;;;5.77;82.38
77079;BME280;66004;55.096;38.760;2023-01-01T19:18:26;98787.19;;;5.73;82.18
77079;BME280;66004;55.096;38.760;2023-01-01T19:21:24;98771.41;;;5.77;82.48
77079;BME280;66004;55.096;38.760;2023-01-01T19:23:54;98769.91;;;5.79;82.36
77079;BME280;66004;55.096;38.760;2023-01-01T19:26:27;98780.69;;;5.90;82.55
77079;BME280;66004;55.096;38.760;2023-01-01T19:28:57;98775.09;;;5.90;82.40
77079;BME280;66004;55.096;38.760;2023-01-01T19:31:26;98770.66;;;5.89;82.06
77079;BME280;66004;55.096;38.760;2023-01-01T19:33:52;98780.78;;;5.93;82.20
77079;BME280;66004;55.096;38.760;2023-01-01T19:36:17;98768.81;;;5.93;81.94
77079;BME280;66004;55.096;38.760;2023-01-01T19:38:43;98774.94;;;5.86;81.96
77079;BME280;66004;55.096;38.760;2023-01-01T19:41:09;98779.84;;;5.89;82.09
77079;BME280;66004;55.096;38.760;2023-01-01T19:43:35;98768.97;;;5.96;82.31
77079;BME280;66004;55.096;38.760;2023-01-01T19:46:02;98755.31;;;5.95;82.09
77079;BME280;66004;55.096;38.760;2023-01-01T19:48:27;98760.28;;;5.98;82.35
77079;BME280;66004;55.096;38.760;2023-01-01T19:50:54;98760.06;;;6.03;82.07
77079;BME280;66004;55.096;38.760;2023-01-01T19:53:20;98759.50;;;6.10;82.08
77079;BME280;66004;55.096;38.760;2023-01-01T19:55:45;98767.75;;;6.06;81.92
77079;BME280;66004;55.096;38.760;2023-01-01T19:58:11;98779.84;;;6.10;81.85
77079;BME280;66004;55.096;38.760;2023-01-01T20:00:37;98780.00;;;6.14;81.77
77079;BME280;66004;55.096;38.760;2023-01-01T20:03:02;98781.78;;;6.18;81.78
77079;BME280;66004;55.096;38.760;2023-01-01T20:05:28;98792.63;;;6.20;81.38
77079;BME280;66004;55.096;38.760;2023-01-01T20:07:54;98800.16;;;6.19;81.73
77079;BME280;66004;55.096;38.760;2023-01-01T20:10:19;98772.78;;;6.13;81.70
77079;BME280;66004;55.096;38.760;2023-01-01T20:12:45;98790.63;;;6.20;81.48
77079;BME280;66004;55.096;38.760;2023-01-01T20:15:12;98797.16;;;6.24;81.45
77079;BME280;66004;55.096;38.760;2023-01-01T20:17:39;98793.22;;;6.26;81.35
77079;BME280;66004;55.096;38.760;2023-01-01T20:20:05;98792.75;;;6.23;81.25
77079;BME280;66004;55.096;38.760;2023-01-01T20:22:31;98802.88;;;6.28;81.14
77079;BME280;66004;55.096;38.760;2023-01-01T20:24:56;98793.09;;;6.22;81.10
77079;BME280;66004;55.096;38.760;2023-01-01T20:27:22;98793.47;;;6.33;81.13
77079;BME280;66004;55.096;38.760;2023-01-01T20:29:51;98803.03;;;6.32;81.01
77079;BME280;66004;55.096;38.760;2023-01-01T20:32:17;98758.53;;;6.27;80.86
77079;BME280;66004;55.096;38.760;2023-01-01T20:34:43;98775.09;;;6.32;81.35
77079;BME280;66004;55.096;38.760;2023-01-01T20:37:08;98780.00;;;6.35;81.10
77079;BME280;66004;55.096;38.760;2023-01-01T20:39:52;98779.59;;;6.24;80.71
77079;BME280;66004;55.096;38.760;2023-01-01T20:42:18;98773.31;;;6.27;81.14
77079;BME280;66004;55.096;38.760;2023-01-01T20:44:43;98783.94;;;6.34;81.16
77079;BME280;66004;55.096;38.760;2023-01-01T20:47:10;98782.72;;;6.22;81.18
77079;BME280;66004;55.096;38.760;2023-01-01T20:49:36;98770.19;;;6.29;81.25
77079;BME280;66004;55.096;38.760;2023-01-01T20:52:01;98767.63;;;6.23;81.65
77079;BME280;66004;55.096;38.760;2023-01-01T20:54:27;98764.59;;;6.29;81.79
77079;BME280;66004;55.096;38.760;2023-01-01T20:56:53;98743.63;;;6.22;81.82
77079;BME280;66004;55.096;38.760;2023-01-01T20:59:18;98745.94;;;6.20;81.79
77079;BME280;66004;55.096;38.760;2023-01-01T21:01:48;98729.72;;;6.14;81.74
77079;BME280;66004;55.096;38.760;2023-01-01T21:04:14;98751.66;;;6.24;81.75
77079;BME280;66004;55.096;38.760;2023-01-01T21:06:40;98751.81;;;6.28;81.65
77079;BME280;66004;55.096;38.760;2023-01-01T21:09:05;98762.25;;;6.31;81.54
77079;BME280;66004;55.096;38.760;2023-01-01T21:11:32;98764.84;;;6.36;81.43
77079;BME280;66004;55.096;38.760;2023-01-01T21:13:58;98745.75;;;6.26;81.38
77079;BME280;66004;55.096;38.760;2023-01-01T21:16:28;98772.75;;;6.34;81.17
77079;BME280;66004;55.096;38.760;2023-01-01T21:18:57;98770.19;;;6.29;81.38
77079;BME280;66004;55.096;38.760;2023-01-01T21:21:24;98769.53;;;6.44;81.23
77079;BME280;66004;55.096;38.760;2023-01-01T21:23:57;98759.53;;;6.43;81.30
77079;BME280;66004;55.096;38.760;2023-01-01T21:26:26;98755.56;;;6.44;81.12
77079;BME280;66004;55.096;38.760;2023-01-01T21:28:53;98738.56;;;6.37;81.08
77079;BME280;66004;55.096;38.760;2023-01-01T21:31:21;98766.06;;;6.47;81.42
77079;BME280;66004;55.096;38.760;2023-01-01T21:33:47;98744.38;;;6.44;81.14
77079;BME280;66004;55.096;38.760;2023-01-01T21:36:20;98765.38;;;6.50;81.23
77079;BME280;66004;55.096;38.760;2023-01-01T21:39:09;98750.47;;;6.46;81.34
77079;BME280;66004;55.096;38.760;2023-01-01T21:41:35;98747.69;;;6.46;81.25
77079;BME280;66004;55.096;38.760;2023-01-01T21:44:00;98751.63;;;6.45;80.91
77079;BME280;66004;55.096;38.760;2023-01-01T21:51:49;98749.28;;;6.47;81.17
77079;BME280;66004;55.096;38.760;2023-01-01T21:54:24;98757.41;;;6.40;81.39
77079;BME280;66004;55.096;38.760;2023-01-01T21:57:13;98746.47;;;6.35;81.71
77079;BME280;66004;55.096;38.760;2023-01-01T21:59:41;98746.47;;;6.35;81.95
77079;BME280;66004;55.096;38.760;2023-01-01T22:07:14;98742.69;;;6.18;82.18
77079;BME280;66004;55.096;38.760;2023-01-01T22:09:44;98742.94;;;6.26;82.57
77079;BME280;66004;55.096;38.760;2023-01-01T22:14:45;98745.94;;;6.20;82.65
77079;BME280;66004;55.096;38.760;2023-01-01T22:17:31;98734.66;;;6.17;82.50
77079;BME280;66004;55.096;38.760;2023-01-01T22:20:15;98733.22;;;6.11;82.86
77079;BME280;66004;55.096;38.760;2023-01-01T22:22:43;98728.94;;;6.13;83.28
77079;BME280;66004;55.096;38.760;2023-01-01T22:25:27;98724.59;;;6.03;82.96
77079;BME280;66004;55.096;38.760;2023-01-01T22:27:54;98718.19;;;6.03;83.14
77079;BME280;66004;55.096;38.760;2023-01-01T22:30:35;98715.88;;;6.05;83.30
77079;BME280;66004;55.096;38.760;2023-01-01T22:33:02;98704.44;;;5.98;83.33
77079;BME280;66004;55.096;38.760;2023-01-01T22:35:34;98706.19;;;6.02;83.26
77079;BME280;66004;55.096;38.760;2023-01-01T22:37:59;98697.47;;;6.04;83.61
77079;BME280;66004;55.096;38.760;2023-01-01T22:40:32;98696.94;;;5.90;83.56
77079;BME280;66004;55.096;38.760;2023-01-01T22:43:04;98693.09;;;5.94;82.96
77079;BME280;66004;55.096;38.760;2023-01-01T22:45:30;98680.66;;;5.92;83.66
77079;BME280;66004;55.096;38.760;2023-01-01T22:48:02;98654.06;;;5.73;83.82
77079;BME280;66004;55.096;38.760;2023-01-01T22:50:30;98673.78;;;5.89;83.60
77079;BME280;66004;55.096;38.760;2023-01-01T22:52:56;98671.59;;;5.95;83.86
77079;BME280;66004;55.096;38.760;2023-01-01T22:55:22;98659.47;;;5.91;83.64
77079;BME280;66004;55.096;38.760;2023-01-01T22:57:48;98654.56;;;5.88;83.69